Ibrahim Akgun

Chefscout - Sivasspor
3 Feb 2028
Donnerstag
Verarbeitung

Persönlichkeit

Anpassungsfähigkeit (9) Ehrgeiz (3) Kontroverse (3) Loyalität (13) Druck (1) Professionalität (12) Fairness (3) Temperament (18)

Profil

Trainerstil Demokratisch
Lizenz Nationale A
Entschlossenheit 6
Menschenführung 6
Motivation 8
Disziplin 10
Arbeitszufriedenheit
100%
Ermüdung
0%
Rolle Chefscout
Gehalt 60.2K p/W
Vertrag 14.03.2028

Leistung

Verhalten Gut
Trainingseffektivität
41%
Spielerentwicklung
60%
Verletzungsprävention
50%
Taktische Umsetzung
55%

Letzte Ereignisse

Vertragsverhandlung begonnen jetzt
Spieler begutachtet jetzt
Nahm an einer Scouting-Besprechung teil jetzt
Empfahl ein Transferziel jetzt
Empfahl ein Transferziel jetzt
Empfahl ein Transferziel jetzt
Empfahl ein Transferziel jetzt
Legte dem Vorstand ein Dossier vor 7T her

Aktuell beobachtet

115
Spieler Verein Status Fähigkeit Vertrauen Beobachtet Zuletzt beobachtet Letzte Stimme
Cheikh Sabaly Vancouver Whitecaps Aktiv 137 / 119 40% 1 31.01.2028 -
Luca Martínez Dupuy Godoy Cruz Aktiv 115 / 123 40% 1 31.01.2028 -
André Henrique Mirassol Aktiv 125 / 136 40% 1 31.01.2028 -
Efecan Karaca Alanyaspor Verloren 110 / 118 65% 1 10.01.2028 Befürworten
Lander Astiazarán Real Sociedad Aktiv 106 / 118 40% 1 10.01.2028 -
Gabriel Lopes Santiago Wanderers Aktiv 102 / 97 40% 1 10.01.2028 -
Luke Baartman Ghazl El Mahalla Verhandlung 116 / 136 40% 1 10.01.2028 -
Lucas Høgsberg RC Strasbourg Aktiv 129 / 127 40% 1 02.01.2028 -
Philipp Maybach Austria Wien Aktiv 116 / 111 40% 1 02.01.2028 -
Andile Zwane Rosario Central Aktiv 124 / 124 67% 1 01.01.2028 Befürworten
John Okoye Ebuka Atlético Mineiro Aktiv 118 / 118 67% 1 01.01.2028 Befürworten
Fabián Correa Barranquilla Aktiv 83 / 76 40% 2 30.08.2027 -
Kaick FC Dallas Aktiv 118 / 92 40% 1 21.08.2027 -
Elias Baum Eintracht Frankfurt Aktiv 141 / 149 40% 1 21.08.2027 -
Gideon Manaseh Ikorodu City Aktiv 85 / 92 40% 2 13.08.2027 -
Juan Giménez Athletic Bilbao Aktiv 113 / 125 40% 1 13.08.2027 -
Alessio Insignito Spezia Aktiv 95 / 106 40% 3 10.08.2027 -
Simone Kosijer Triestina Aktiv 114 / 92 40% 3 10.08.2027 -
Chibueze Oputa Rangers International Aktiv 86 / 107 40% 1 06.08.2027 -
Esteban de Lima Tacuarembo Aktiv 105 / 77 40% 3 05.08.2027 -
Martim Cunha Porto Aktiv 112 / 96 40% 1 05.08.2027 -
Jenson Jones Peterborough United Aktiv 87 / 119 40% 1 04.08.2027 -
Tiago Freitas Benfica Aktiv 101 / 101 40% 5 03.08.2027 -
Claudio Martey Pianese Aktiv 88 / 77 40% 1 03.08.2027 -
Felipe Faúndez O'Higgins Aktiv 101 / 103 40% 1 02.08.2027 -
Josh Dacres-Cogley Stockport County Aktiv 121 / 113 40% 2 01.08.2027 -
Juan Sebastián Herrera Deportivo La Guaira Aktiv 107 / 127 40% 1 01.08.2027 -
Thamsanqa Phiri Free State Stars Aktiv 75 / 92 40% 2 30.07.2027 -
Sipho Mbule Asante Kotoko Aktiv 112 / 106 40% 1 30.07.2027 -
Isaac Hayden Leyton Orient Aktiv 131 / 104 40% 1 30.07.2027 -
Marco Oroná Antofagasta Aktiv 92 / 100 40% 1 30.07.2027 -
Daniel Banjaqui Benfica Aktiv 110 / 109 40% 2 29.07.2027 -
Kazunari Kita Real Sociedad Aktiv 106 / 101 40% 2 29.07.2027 -
João Mendes Kayserispor Aktiv 127 / 115 40% 2 26.07.2027 -
Rui Costa Port Vale Aktiv 117 / 131 40% 1 26.07.2027 -
Jordan Graham Newport County Aktiv 101 / 93 40% 1 25.07.2027 -
Enis Bardhi Konyaspor Aktiv 133 / 126 40% 1 25.07.2027 -
Mattia Mannini Juve Stabia Aktiv 117 / 101 40% 1 25.07.2027 -
Teo Rodríguez Pagano San Lorenzo Aktiv 107 / 118 40% 2 23.07.2027 -
Alessandro Ventre Vis Pesaro Aktiv 96 / 112 40% 2 23.07.2027 -
Kaleb Jimenez Catania Aktiv 126 / 111 40% 1 23.07.2027 -
Youssef Belammari Al Ahly Aktiv 136 / 123 40% 1 23.07.2027 -
George Honeyman Blackpool Aktiv 104 / 121 40% 1 21.07.2027 -
Dan Kemp Stevenage Aktiv 111 / 108 40% 1 21.07.2027 -
Giuseppe Sibilli Bari Aktiv 127 / 126 40% 2 20.07.2027 -
Giovanni Bruzzaniti Catania Aktiv 113 / 134 40% 1 20.07.2027 -
Özcan Şahan Istanbulspor Aktiv 93 / 79 62% 1 19.07.2027 Befürworten
Ben Osborn Stockport County Aktiv 116 / 113 40% 1 18.07.2027 -
Simone Mazzocchi Cosenza Aktiv 132 / 96 40% 1 17.07.2027 -
Pablo García Gijón Aktiv 121 / 113 40% 1 16.07.2027 -
Andrea Franzoni Virtus Entella Aktiv 126 / 112 40% 1 16.07.2027 -
Ryan Wintle Milton Keynes Dons Aktiv 130 / 105 40% 1 14.07.2027 -
George Byers Port Vale Aktiv 111 / 119 40% 1 13.07.2027 -
Matthew Sorinola Oldham Athletic Aktiv 102 / 129 40% 1 13.07.2027 -
Adam Phillips Gillingham Aktiv 130 / 129 40% 1 10.07.2027 -
Gökdeniz Gürpüz Adana Demirspor Aktiv 97 / 113 40% 1 09.07.2027 -
Riley Owen Bristol Rovers Aktiv 102 / 130 40% 1 09.07.2027 -
Xavier Amaechi Plymouth Argyle Aktiv 100 / 104 40% 1 07.07.2027 -
Josh Neufville Bradford City Aktiv 112 / 129 40% 1 07.07.2027 -
Nduduzo Sibiya Golden Arrows Aktiv 110 / 110 40% 1 05.07.2027 -
Mees Kaandorp Wadi Degla Aktiv 108 / 111 40% 1 05.07.2027 -
Fuzy Taylor Medeama Aktiv 77 / 78 40% 1 05.07.2027 -
Ibou Touray Bradford City Aktiv 100 / 127 40% 1 03.07.2027 -
Camillo Tavernelli Arezzo Aktiv 114 / 104 40% 1 03.07.2027 -
Lebohang Maboe Kaizer Chiefs Aktiv 128 / 92 40% 1 02.07.2027 -
Salah Mohsen El Masry Aktiv 118 / 136 40% 1 02.07.2027 -
Paddy Lane Reading Aktiv 117 / 118 40% 1 28.06.2027 -
Jack Shorrock Port Vale Aktiv 91 / 113 40% 1 27.06.2027 -
Alexis Vossah Toulouse FC Aktiv 125 / 149 40% 1 25.06.2027 -
Pedro Vian Seewald Arzignano Aktiv 97 / 84 40% 1 24.06.2027 -
Gady Beyuku Modena Aktiv 125 / 109 40% 1 23.06.2027 -
Saeed Abdulrahman Al Shabab Aktiv 108 / 84 40% 1 21.06.2027 -
Arjan Malić Sturm Graz Aktiv 133 / 142 40% 1 14.06.2027 -
Vasyl Bundash Metalurh Zaporizhzhia Aktiv 88 / 102 40% 1 12.06.2027 -
Vanja Dragojević Partizan Aktiv 124 / 109 40% 2 11.06.2027 -
Denys Smetana Inhulets Aktiv 102 / 111 40% 2 01.06.2027 -
Florin Bancu Utrecht Verloren 124 / 124 68% 1 01.06.2027 Befürworten
Amr Fathy Hajduk Split Aktiv 121 / 121 66% 1 01.06.2027 Befürworten
Ibrahim Sabiu Bendel Insurance Aktiv 72 / 111 40% 1 01.06.2027 -
Alberto Cerri Cesena Aktiv 120 / 133 40% 1 30.01.2027 -
Filip Bundgaard Brondby Aktiv 117 / 107 40% 1 30.01.2027 -
Ramón Mierez Al Nasr Aktiv 134 / 142 40% 1 29.01.2027 -
Samuel Kalu Botev Plovdiv Aktiv 121 / 109 40% 4 28.01.2027 -
Tomás Molina Argentinos Juniors Aktiv 115 / 108 40% 1 28.01.2027 -
Achraf Bencharki Al Ahly Aktiv 138 / 113 40% 1 28.01.2027 -
Erik Prekop Gornik Zabrze Aktiv 119 / 126 40% 1 28.01.2027 -
Peter Olayinka Al-Wehda Aktiv 118 / 132 40% 2 26.01.2027 -
Filip Kubala Banik Ostrava Aktiv 130 / 107 40% 1 26.01.2027 -
Mikhail Ignatov Sochi Aktiv 115 / 113 40% 1 26.01.2027 -
Caio Lucas Al Ain Aktiv 130 / 125 40% 2 23.01.2027 -
Facundo Suárez Instituto Aktiv 123 / 143 40% 2 23.01.2027 -
Martin Minchev Cracovia Aktiv 112 / 113 40% 1 22.01.2027 -
Tomáš Chorý Slavia Prague Aktiv 141 / 138 40% 1 21.01.2027 -
Edward Chilufya FC Midtjylland Aktiv 134 / 114 40% 1 17.01.2027 -
François Kamano Sochi Aktiv 121 / 120 40% 1 15.01.2027 -
Giorgos Giakoumakis Al Ain Aktiv 137 / 148 40% 1 13.01.2027 -
Nasser Suqrat Al Shabab Aktiv 147 / 144 40% 2 13.01.2027 -
Mattia Bortolussi Padova Aktiv 126 / 131 40% 1 13.01.2027 -
Karim El Berkaoui Al Dhafra Aktiv 138 / 98 40% 1 10.01.2027 -
Renato Júnior Al Wasl Aktiv 107 / 112 40% 1 10.01.2027 -
Lucas Passerini Belgrano Aktiv 109 / 127 40% 1 08.01.2027 -
Lucan Louw AS Police Aktiv 64 / 103 40% 1 06.01.2027 -
Sergey Chernov Zenit Aktiv 84 / 96 40% 1 05.01.2027 -
Ilja Ivanov Rubin Aktiv 71 / 80 40% 1 04.01.2027 -
Runar Norheim FC Nordsjaelland Aktiv 127 / 138 40% 1 04.01.2027 -
Taras Mykhavko Dynamo Kyiv Aktiv 119 / 121 40% 1 03.01.2027 -
Andrej Sestak FK Senica Aktiv 109 / 103 40% 1 02.01.2027 -
Milan Roganović Partizan Aktiv 99 / 108 40% 1 02.01.2027 -
Michal Suslov Talleres Verloren 115 / 115 66% 1 01.01.2027 Befürworten
Agustín Seyral Sarmiento Aktiv 89 / 115 40% 1 25.08.2026 -
Santiago Colidio Colón Aktiv 81 / 106 40% 1 25.08.2026 -
Joaquín Silva Santiago Wanderers Aktiv 81 / 101 40% 1 17.08.2026 -
Lucas Quintana Cerro Porteno Aktiv 94 / 122 40% 1 05.08.2026 -
Frankie Westfield Philadelphia Union Aktiv 100 / 98 40% 1 03.08.2026 -
Drake Callender Minnesota United FC Aktiv 124 / 112 40% 1 01.08.2026 -